createdAt,value
2023-03-06T00:00:00.694Z,52.96
2023-03-06T00:02:05.413Z,53.08
2023-03-06T00:04:10.182Z,52.78
2023-03-06T00:06:14.850Z,53.03
2023-03-06T00:08:19.565Z,53.01
2023-03-06T00:10:27.083Z,53.19
2023-03-06T00:12:31.792Z,52.97
2023-03-06T00:14:36.437Z,52.78
2023-03-06T00:16:41.036Z,53.03
2023-03-06T00:18:45.683Z,52.86
2023-03-06T00:20:50.305Z,52.85
2023-03-06T00:22:57.544Z,52.62
2023-03-06T00:25:08.519Z,52.60
2023-03-06T00:27:13.151Z,52.70
2023-03-06T00:29:17.859Z,52.76
2023-03-06T00:31:22.851Z,52.52
2023-03-06T00:33:27.683Z,52.15
2023-03-06T00:35:32.481Z,52.19
2023-03-06T00:37:37.318Z,52.22
2023-03-06T00:39:42.016Z,52.24
2023-03-06T00:41:47.134Z,52.23
2023-03-06T00:43:51.824Z,51.83
2023-03-06T00:45:56.459Z,52.18
2023-03-06T00:48:01.207Z,52.03
2023-03-06T00:50:06.807Z,51.79
2023-03-06T00:52:12.059Z,51.84
2023-03-06T00:54:16.694Z,51.38
2023-03-06T00:56:21.364Z,51.79
2023-03-06T00:58:26.099Z,51.39
2023-03-06T01:00:33.540Z,51.13
2023-03-06T01:02:38.254Z,51.04
2023-03-06T01:04:42.907Z,51.19
2023-03-06T01:06:49.082Z,51.23
2023-03-06T01:08:53.798Z,51.08
2023-03-06T01:10:58.547Z,50.62
2023-03-06T01:13:03.191Z,50.42
2023-03-06T01:15:10.833Z,50.86
2023-03-06T01:17:15.493Z,50.74
2023-03-06T01:19:21.022Z,50.32
2023-03-06T01:21:25.725Z,49.89
2023-03-06T01:23:30.388Z,50.02
2023-03-06T01:25:35.077Z,49.90
2023-03-06T01:27:39.813Z,49.69
2023-03-06T01:29:44.462Z,49.71
2023-03-06T01:31:49.118Z,49.73
2023-03-06T01:33:54.121Z,49.74
2023-03-06T01:35:58.799Z,49.69
2023-03-06T01:38:03.431Z,50.19
2023-03-06T01:40:10.906Z,50.06
2023-03-06T01:42:16.181Z,49.64
2023-03-06T01:44:21.390Z,49.47
2023-03-06T01:46:33.784Z,49.47
2023-03-06T01:48:38.599Z,49.33
2023-03-06T01:50:43.744Z,49.73
2023-03-06T01:52:51.094Z,49.89
2023-03-06T01:54:58.216Z,49.86
2023-03-06T01:57:07.025Z,49.77
2023-03-06T01:59:12.812Z,49.48
2023-03-06T02:01:17.856Z,49.31
2023-03-06T02:03:25.178Z,49.52
2023-03-06T02:05:29.870Z,49.58
2023-03-06T02:07:36.217Z,49.36
2023-03-06T02:09:41.563Z,49.24
2023-03-06T02:11:46.349Z,49.16
2023-03-06T02:13:53.683Z,49.26
2023-03-06T02:15:58.617Z,49.36
2023-03-06T02:18:03.636Z,48.80
2023-03-06T02:20:16.205Z,49.04
2023-03-06T02:22:22.161Z,48.79
2023-03-06T02:24:36.709Z,49.26
2023-03-06T02:26:43.952Z,49.09
2023-03-06T02:28:48.685Z,48.87
2023-03-06T02:30:55.815Z,49.16
2023-03-06T02:33:01.126Z,49.07
2023-03-06T02:35:06.839Z,49.09
2023-03-06T02:37:11.947Z,49.23
2023-03-06T02:39:19.418Z,49.35
2023-03-06T02:41:24.107Z,49.11
2023-03-06T02:43:33.240Z,48.87
2023-03-06T02:45:40.616Z,48.78
2023-03-06T02:47:45.345Z,48.92
2023-03-06T02:49:51.016Z,48.80
2023-03-06T02:51:55.790Z,49.13
2023-03-06T02:54:00.476Z,48.82
2023-03-06T02:56:05.419Z,48.86
2023-03-06T02:58:10.616Z,48.77
2023-03-06T03:00:17.577Z,48.83
2023-03-06T03:02:22.335Z,48.98
2023-03-06T03:04:27.042Z,49.03
2023-03-06T03:06:31.732Z,48.71
2023-03-06T03:08:37.169Z,48.27
2023-03-06T03:10:42.203Z,48.67
2023-03-06T03:12:46.881Z,48.49
2023-03-06T03:14:51.831Z,48.61
2023-03-06T03:16:56.584Z,48.82
2023-03-06T03:19:02.620Z,49.18
2023-03-06T03:21:11.095Z,48.94
2023-03-06T03:23:15.719Z,49.26
2023-03-06T03:25:21.607Z,48.95
2023-03-06T03:27:26.320Z,48.80
2023-03-06T03:29:31.523Z,48.66
2023-03-06T03:31:36.286Z,48.59
2023-03-06T03:33:41.756Z,48.38
2023-03-06T03:35:46.618Z,48.60
2023-03-06T03:37:51.332Z,48.19
2023-03-06T03:39:56.045Z,48.40
2023-03-06T03:42:03.595Z,48.40
2023-03-06T03:44:08.405Z,48.71
2023-03-06T03:46:13.402Z,48.41
2023-03-06T03:48:18.545Z,48.38
2023-03-06T03:50:23.631Z,48.50
2023-03-06T03:52:28.363Z,48.29
2023-03-06T03:54:33.082Z,48.55
2023-03-06T03:56:37.749Z,48.77
2023-03-06T03:58:46.353Z,48.52
2023-03-06T04:00:51.703Z,48.45
2023-03-06T04:02:56.420Z,48.60
2023-03-06T04:05:09.473Z,48.64
2023-03-06T04:07:14.206Z,48.68
2023-03-06T04:09:19.082Z,48.27
2023-03-06T04:11:23.794Z,48.38
2023-03-06T04:13:28.583Z,48.56
2023-03-06T04:15:33.415Z,48.11
2023-03-06T04:17:38.652Z,48.56
2023-03-06T04:19:45.090Z,48.76
2023-03-06T04:21:49.767Z,48.42
2023-03-06T04:23:54.506Z,48.53
2023-03-06T04:25:59.558Z,49.11
2023-03-06T04:28:05.043Z,48.77
2023-03-06T04:30:11.986Z,48.70
2023-03-06T04:32:16.804Z,48.93
2023-03-06T04:34:21.461Z,48.94
2023-03-06T04:36:30.414Z,49.02
2023-03-06T04:38:37.343Z,49.17
2023-03-06T04:40:44.476Z,49.31
2023-03-06T04:42:49.992Z,49.44
2023-03-06T04:44:54.612Z,49.44
2023-03-06T04:46:59.262Z,49.61
2023-03-06T04:49:03.984Z,49.97
2023-03-06T04:51:10.304Z,49.92
2023-03-06T04:53:14.929Z,50.08
2023-03-06T04:55:19.979Z,50.32
2023-03-06T04:57:24.632Z,50.55
2023-03-06T04:59:29.410Z,50.66
2023-03-06T05:01:34.038Z,50.78
2023-03-06T05:03:39.033Z,51.30
2023-03-06T05:05:43.947Z,51.20
2023-03-06T05:07:48.660Z,51.18
2023-03-06T05:09:53.824Z,51.10
2023-03-06T05:11:58.591Z,51.26
2023-03-06T05:14:03.235Z,51.35
2023-03-06T05:16:09.180Z,51.35
2023-03-06T05:18:13.963Z,51.26
2023-03-06T05:20:19.134Z,51.45
2023-03-06T05:22:23.931Z,51.41
2023-03-06T05:24:28.606Z,51.70
2023-03-06T05:26:33.366Z,51.56
2023-03-06T05:28:38.323Z,51.81
2023-03-06T05:30:42.988Z,52.09
2023-03-06T05:32:47.776Z,51.70
2023-03-06T05:34:52.953Z,51.30
2023-03-06T05:36:57.528Z,51.57
2023-03-06T05:39:02.203Z,51.67
2023-03-06T05:41:10.595Z,51.69
2023-03-06T05:43:15.301Z,52.05
2023-03-06T05:45:20.536Z,52.02
2023-03-06T05:47:25.283Z,52.10
2023-03-06T05:49:33.370Z,52.18
2023-03-06T05:51:38.126Z,52.18
2023-03-06T05:53:42.974Z,51.99
2023-03-06T05:55:54.850Z,52.21
2023-03-06T05:57:59.535Z,52.33
2023-03-06T06:00:04.834Z,52.10
2023-03-06T06:02:17.493Z,52.35
2023-03-06T06:04:22.349Z,52.39
2023-03-06T06:06:27.199Z,52.07
2023-03-06T06:08:31.892Z,52.28
2023-03-06T06:10:36.547Z,52.33
2023-03-06T06:12:41.367Z,52.21
2023-03-06T06:14:46.016Z,52.25
2023-03-06T06:16:51.512Z,52.32
2023-03-06T06:18:56.926Z,52.45
2023-03-06T06:21:06.191Z,52.92
2023-03-06T06:23:11.790Z,52.96
2023-03-06T06:25:17.058Z,53.23
2023-03-06T06:27:21.776Z,53.15
2023-03-06T06:29:27.499Z,53.05
2023-03-06T06:31:32.300Z,53.37
2023-03-06T06:33:37.059Z,53.44
2023-03-06T06:35:41.750Z,53.75
2023-03-06T06:37:46.537Z,53.63
2023-03-06T06:39:51.617Z,53.25
2023-03-06T06:42:09.983Z,53.18
2023-03-06T06:44:21.483Z,53.60
2023-03-06T06:47:09.600Z,53.47
2023-03-06T06:48:52.384Z,53.56
2023-03-06T06:51:00.522Z,53.19
2023-03-06T06:53:05.294Z,52.78
2023-03-06T06:55:11.964Z,53.14
2023-03-06T06:57:16.733Z,53.12
2023-03-06T06:59:21.456Z,52.85
2023-03-06T07:01:26.151Z,53.10
2023-03-06T07:03:30.871Z,52.70
2023-03-06T07:05:35.610Z,52.67
2023-03-06T07:07:40.245Z,52.47
2023-03-06T07:09:44.962Z,52.61
2023-03-06T07:11:49.845Z,52.91
2023-03-06T07:13:54.510Z,52.79
2023-03-06T07:15:59.273Z,52.93
2023-03-06T07:18:04.033Z,53.01
2023-03-06T07:20:10.251Z,53.04
2023-03-06T07:22:14.950Z,53.09
2023-03-06T07:24:19.663Z,53.14
2023-03-06T07:26:24.544Z,53.06
2023-03-06T07:28:29.172Z,53.56
2023-03-06T07:30:33.941Z,53.34
2023-03-06T07:32:38.594Z,53.60
2023-03-06T07:34:43.294Z,53.44
2023-03-06T07:36:47.980Z,53.51
2023-03-06T07:38:52.624Z,53.37
2023-03-06T07:40:57.267Z,53.67
2023-03-06T07:43:18.422Z,53.77
2023-03-06T07:45:27.568Z,53.62
2023-03-06T07:47:32.222Z,53.61
2023-03-06T07:49:36.896Z,53.54
2023-03-06T07:51:41.508Z,52.88
2023-03-06T07:53:46.460Z,53.36
2023-03-06T07:55:51.229Z,52.98
2023-03-06T07:57:55.983Z,53.08
2023-03-06T08:00:00.649Z,53.35
2023-03-06T08:02:05.386Z,53.21
2023-03-06T08:04:10.057Z,52.99
2023-03-06T08:06:16.983Z,53.12
2023-03-06T08:08:21.581Z,53.22
2023-03-06T08:10:26.284Z,53.02
2023-03-06T08:12:31.080Z,53.25
2023-03-06T08:14:37.262Z,53.00
2023-03-06T08:16:41.934Z,53.06
2023-03-06T08:18:46.786Z,53.14
2023-03-06T08:20:51.425Z,53.07
2023-03-06T08:22:56.033Z,52.91
2023-03-06T08:25:00.858Z,52.99
2023-03-06T08:27:05.634Z,53.14
2023-03-06T08:29:12.006Z,53.14
2023-03-06T08:31:26.967Z,53.15
2023-03-06T08:33:31.706Z,52.92
2023-03-06T08:35:36.383Z,52.90
2023-03-06T08:37:41.109Z,52.74
2023-03-06T08:39:45.827Z,52.53
2023-03-06T08:41:50.578Z,52.73
2023-03-06T08:43:55.291Z,52.37
2023-03-06T08:46:00.270Z,52.20
2023-03-06T08:48:05.119Z,52.22
2023-03-06T08:50:11.894Z,52.48
2023-03-06T08:52:16.628Z,52.47
2023-03-06T08:54:21.294Z,52.05
2023-03-06T08:56:28.113Z,52.00
2023-03-06T08:58:32.852Z,52.23
2023-03-06T09:00:38.525Z,51.99
2023-03-06T09:02:43.252Z,51.87
2023-03-06T09:04:47.929Z,51.37
2023-03-06T09:06:54.524Z,51.34
2023-03-06T09:09:00.427Z,51.30
2023-03-06T09:11:05.231Z,51.23
2023-03-06T09:13:09.818Z,51.34
2023-03-06T09:15:15.800Z,51.16
2023-03-06T09:17:20.459Z,51.14
2023-03-06T09:19:25.170Z,51.36
2023-03-06T09:21:29.997Z,51.07
2023-03-06T09:23:35.223Z,51.01
2023-03-06T09:25:39.922Z,51.17
2023-03-06T09:27:44.621Z,51.18
2023-03-06T09:29:49.603Z,50.83
2023-03-06T09:31:54.288Z,50.69
2023-03-06T09:33:59.141Z,50.37
2023-03-06T09:36:05.027Z,50.56
2023-03-06T09:38:09.720Z,50.60
2023-03-06T09:40:24.281Z,50.87
2023-03-06T09:42:31.429Z,50.90
2023-03-06T09:44:38.951Z,50.51
2023-03-06T09:47:08.912Z,50.52
2023-03-06T09:49:38.236Z,50.52
2023-03-06T09:51:58.815Z,50.47
2023-03-06T09:54:12.113Z,50.17
2023-03-06T09:56:21.434Z,50.24
2023-03-06T09:58:28.808Z,50.46
2023-03-06T10:00:37.020Z,50.23
2023-03-06T10:02:44.549Z,50.45
2023-03-06T10:04:52.271Z,50.44
2023-03-06T10:07:04.884Z,50.79
2023-03-06T10:09:14.737Z,50.87
2023-03-06T10:11:26.222Z,50.71
2023-03-06T10:13:37.198Z,50.63
2023-03-06T10:15:44.952Z,50.74
2023-03-06T10:17:49.995Z,50.86
2023-03-06T10:19:54.771Z,50.71
2023-03-06T10:22:04.290Z,50.70
2023-03-06T10:24:20.163Z,50.79
2023-03-06T10:26:29.689Z,50.67
2023-03-06T10:28:41.377Z,50.61
2023-03-06T10:30:55.934Z,50.62
2023-03-06T10:33:06.943Z,50.70
2023-03-06T10:35:18.458Z,50.81
2023-03-06T10:37:24.573Z,50.82
2023-03-06T10:39:31.159Z,50.97
2023-03-06T10:41:36.295Z,51.17
2023-03-06T10:43:43.754Z,51.26
2023-03-06T10:45:53.317Z,51.27
2023-03-06T10:48:11.118Z,51.33
2023-03-06T10:50:27.913Z,51.32
2023-03-06T10:52:35.426Z,51.22
2023-03-06T10:54:42.800Z,50.77
2023-03-06T10:56:48.486Z,50.98
2023-03-06T10:59:07.081Z,51.28
2023-03-06T11:01:21.747Z,51.15
2023-03-06T11:03:26.427Z,50.84
2023-03-06T11:05:31.129Z,50.68
2023-03-06T11:07:36.832Z,50.51
2023-03-06T11:09:41.985Z,50.13
2023-03-06T11:11:46.627Z,49.95
2023-03-06T11:13:58.875Z,49.99
2023-03-06T11:16:07.049Z,50.06
2023-03-06T11:18:27.828Z,50.08
2023-03-06T11:20:50.982Z,50.30
2023-03-06T11:23:02.053Z,50.18
2023-03-06T11:25:11.509Z,50.03
2023-03-06T11:27:25.509Z,50.12
2023-03-06T11:29:38.947Z,50.60
2023-03-06T11:31:51.088Z,50.55
2023-03-06T11:34:05.008Z,50.41
2023-03-06T11:36:16.043Z,50.08
2023-03-06T11:38:25.994Z,50.10
2023-03-06T11:40:36.821Z,49.71
2023-03-06T11:42:47.813Z,49.63
2023-03-06T11:45:02.918Z,49.30
2023-03-06T11:47:16.205Z,49.18
2023-03-06T11:49:26.182Z,49.05
2023-03-06T11:51:35.048Z,49.53
2023-03-06T11:53:41.855Z,49.22
2023-03-06T11:55:54.803Z,48.79
2023-03-06T11:58:17.322Z,48.56
2023-03-06T12:00:33.273Z,48.72
2023-03-06T12:03:01.782Z,48.95
2023-03-06T12:05:25.976Z,48.49
2023-03-06T12:07:35.167Z,48.33
2023-03-06T12:09:48.129Z,48.19
2023-03-06T12:12:02.486Z,48.07
2023-03-06T12:14:20.725Z,48.23
2023-03-06T12:16:50.278Z,48.18
2023-03-06T12:19:07.630Z,48.41
2023-03-06T12:21:21.630Z,48.69
2023-03-06T12:23:43.629Z,48.63
2023-03-06T12:25:53.966Z,49.07
2023-03-06T12:28:08.469Z,48.52
2023-03-06T12:30:31.159Z,48.37
2023-03-06T12:32:47.949Z,48.31
2023-03-06T12:35:13.535Z,48.68
2023-03-06T12:37:30.391Z,48.70
2023-03-06T12:39:53.350Z,48.97
2023-03-06T12:42:22.685Z,48.71
2023-03-06T12:44:59.781Z,48.92
2023-03-06T12:47:08.585Z,49.01
2023-03-06T12:49:31.424Z,48.87
2023-03-06T12:51:38.127Z,48.66
2023-03-06T12:53:44.219Z,48.64
2023-03-06T12:55:50.819Z,48.57
2023-03-06T12:57:55.671Z,48.75
2023-03-06T13:00:00.443Z,48.92
2023-03-06T13:02:31.876Z,48.73
2023-03-06T13:04:57.932Z,48.51
2023-03-06T13:07:32.078Z,49.05
2023-03-06T13:09:54.053Z,48.83
2023-03-06T13:12:36.157Z,48.64
2023-03-06T13:14:58.125Z,48.39
2023-03-06T13:17:27.128Z,48.45
2023-03-06T13:19:32.006Z,48.47
2023-03-06T13:22:14.944Z,48.45
2023-03-06T13:24:22.186Z,48.40
2023-03-06T13:26:50.557Z,48.29
2023-03-06T13:28:56.375Z,48.39
2023-03-06T13:31:01.202Z,48.12
2023-03-06T13:33:39.275Z,48.32
2023-03-06T13:35:54.447Z,48.34
2023-03-06T13:37:59.499Z,48.28
2023-03-06T13:40:26.750Z,48.60
2023-03-06T13:42:32.659Z,48.01
2023-03-06T13:44:48.581Z,48.02
2023-03-06T13:47:01.050Z,48.27
2023-03-06T13:49:14.386Z,48.34
2023-03-06T13:51:28.269Z,48.30
2023-03-06T13:53:52.603Z,48.18
2023-03-06T13:56:11.973Z,47.61
2023-03-06T13:58:31.608Z,47.83
2023-03-06T14:01:10.219Z,47.79
2023-03-06T14:03:38.596Z,47.82
2023-03-06T14:05:47.921Z,47.79
2023-03-06T14:08:07.944Z,47.90
2023-03-06T14:10:21.354Z,47.76
2023-03-06T14:12:30.292Z,46.26
2023-03-06T14:14:39.246Z,44.64
2023-03-06T14:16:50.845Z,44.08
2023-03-06T14:18:57.520Z,44.65
2023-03-06T14:21:03.628Z,45.81
2023-03-06T14:23:31.823Z,46.69
2023-03-06T14:25:36.596Z,46.22
2023-03-06T14:27:52.588Z,45.34
2023-03-06T14:30:09.282Z,45.56
2023-03-06T14:32:21.375Z,45.12
2023-03-06T14:34:28.863Z,45.13
2023-03-06T14:36:41.850Z,45.08
2023-03-06T14:38:49.244Z,44.77
2023-03-06T14:40:54.076Z,44.85
2023-03-06T14:43:21.036Z,44.55
2023-03-06T14:45:25.873Z,44.64
2023-03-06T14:47:32.193Z,44.60
2023-03-06T14:49:36.858Z,44.80
2023-03-06T14:51:44.796Z,44.64
2023-03-06T14:53:50.932Z,44.68
2023-03-06T14:55:57.454Z,44.79
2023-03-06T14:58:07.749Z,44.66
2023-03-06T15:00:19.888Z,44.68
2023-03-06T15:02:27.513Z,44.40
2023-03-06T15:04:39.916Z,44.66
2023-03-06T15:06:48.855Z,44.49
2023-03-06T15:09:00.191Z,44.55
2023-03-06T15:11:06.684Z,44.64
2023-03-06T15:13:20.033Z,44.46
2023-03-06T15:15:31.184Z,44.04
2023-03-06T15:17:42.593Z,43.85
2023-03-06T15:19:49.495Z,44.21
2023-03-06T15:21:54.369Z,43.91
2023-03-06T15:23:59.360Z,43.94
2023-03-06T15:26:17.333Z,43.80
2023-03-06T15:28:33.155Z,43.66
2023-03-06T15:30:38.329Z,43.58
2023-03-06T15:32:43.483Z,43.60
2023-03-06T15:35:08.811Z,43.44
2023-03-06T15:37:28.562Z,43.26
2023-03-06T15:39:40.595Z,43.44
2023-03-06T15:41:45.207Z,43.43
2023-03-06T15:43:50.137Z,43.56
2023-03-06T15:45:59.234Z,43.99
2023-03-06T15:48:14.683Z,43.74
2023-03-06T15:50:24.410Z,43.60
2023-03-06T15:52:29.952Z,43.30
2023-03-06T15:54:35.542Z,43.58
2023-03-06T15:56:42.012Z,43.46
2023-03-06T15:58:47.661Z,42.84
2023-03-06T16:00:52.970Z,43.19
2023-03-06T16:02:59.017Z,43.35
2023-03-06T16:05:10.460Z,43.62
2023-03-06T16:07:15.241Z,43.82
2023-03-06T16:09:20.331Z,43.92
2023-03-06T16:11:35.378Z,44.09
2023-03-06T16:13:47.220Z,44.24
2023-03-06T16:15:53.488Z,44.31
2023-03-06T16:17:59.287Z,44.09
2023-03-06T16:20:06.002Z,44.21
2023-03-06T16:22:14.677Z,44.39
2023-03-06T16:24:19.407Z,44.38
2023-03-06T16:26:31.993Z,44.37
2023-03-06T16:28:37.174Z,44.53
2023-03-06T16:30:43.458Z,44.61
2023-03-06T16:32:52.753Z,44.58
2023-03-06T16:34:57.736Z,44.78
2023-03-06T16:37:07.690Z,45.08
2023-03-06T16:39:15.863Z,45.08
2023-03-06T16:41:21.515Z,45.25
2023-03-06T16:43:28.809Z,45.25
2023-03-06T16:45:38.827Z,45.28
2023-03-06T16:47:47.243Z,45.36
2023-03-06T16:49:53.788Z,45.53
2023-03-06T16:52:01.344Z,45.56
2023-03-06T16:54:07.408Z,45.49
2023-03-06T16:56:14.782Z,45.82
2023-03-06T16:58:19.472Z,45.98
2023-03-06T17:00:25.126Z,46.00
2023-03-06T17:02:30.058Z,46.21
2023-03-06T17:04:35.501Z,46.27
2023-03-06T17:06:47.093Z,46.34
2023-03-06T17:08:52.374Z,46.50
2023-03-06T17:10:57.819Z,46.53
2023-03-06T17:13:04.481Z,46.48
2023-03-06T17:15:12.403Z,46.55
2023-03-06T17:17:17.897Z,46.67
2023-03-06T17:19:24.287Z,46.90
2023-03-06T17:21:29.681Z,46.91
2023-03-06T17:23:37.376Z,46.97
2023-03-06T17:25:42.772Z,47.14
2023-03-06T17:27:51.972Z,47.22
2023-03-06T17:30:00.746Z,47.18
2023-03-06T17:32:06.856Z,47.46
2023-03-06T17:34:12.526Z,47.36
2023-03-06T17:36:18.410Z,47.53
2023-03-06T17:38:24.672Z,47.58
2023-03-06T17:40:30.088Z,47.75
2023-03-06T17:42:37.040Z,47.79
2023-03-06T17:44:42.880Z,47.88
2023-03-06T17:46:49.453Z,48.00
2023-03-06T17:48:55.139Z,48.20
2023-03-06T17:51:04.870Z,48.14
2023-03-06T17:53:10.815Z,48.30
2023-03-06T17:55:16.705Z,48.24
2023-03-06T17:57:24.230Z,48.40
2023-03-06T17:59:31.012Z,48.41
2023-03-06T18:01:36.218Z,48.43
2023-03-06T18:03:45.884Z,48.53
2023-03-06T18:06:00.414Z,48.69
2023-03-06T18:08:07.897Z,48.53
2023-03-06T18:10:14.850Z,48.61
2023-03-06T18:12:20.661Z,48.71
2023-03-06T18:14:27.374Z,48.90
2023-03-06T18:16:33.901Z,48.77
2023-03-06T18:18:40.107Z,48.85
2023-03-06T18:20:48.318Z,48.82
2023-03-06T18:22:53.537Z,48.90
2023-03-06T18:25:00.255Z,49.08
2023-03-06T18:27:06.720Z,49.28
2023-03-06T18:29:14.360Z,49.36
2023-03-06T18:31:27.641Z,49.32
2023-03-06T18:33:36.152Z,49.42
2023-03-06T18:35:44.333Z,49.27
2023-03-06T18:37:50.382Z,49.39
2023-03-06T18:39:56.417Z,49.33
2023-03-06T18:42:02.406Z,49.45
2023-03-06T18:44:08.843Z,49.55
2023-03-06T18:46:14.924Z,49.59
2023-03-06T18:48:22.032Z,49.46
2023-03-06T18:50:28.713Z,49.52
2023-03-06T18:52:35.874Z,49.61
2023-03-06T18:54:43.482Z,49.74
2023-03-06T18:56:49.614Z,49.63
2023-03-06T18:59:03.042Z,49.83
2023-03-06T19:01:12.042Z,50.03
2023-03-06T19:03:19.066Z,50.13
2023-03-06T19:05:25.838Z,50.31
2023-03-06T19:07:31.975Z,50.37
2023-03-06T19:09:37.566Z,50.42
2023-03-06T19:11:46.455Z,50.58
2023-03-06T19:13:52.361Z,50.68
2023-03-06T19:15:59.551Z,50.83
2023-03-06T19:18:06.793Z,50.95
2023-03-06T19:20:14.534Z,51.22
2023-03-06T19:22:21.459Z,51.36
2023-03-06T19:24:29.085Z,51.51
2023-03-06T19:26:42.018Z,51.55
2023-03-06T19:28:48.805Z,51.81
2023-03-06T19:30:56.126Z,51.99
2023-03-06T19:33:03.571Z,52.22
2023-03-06T19:35:13.127Z,52.47
2023-03-06T19:37:23.715Z,52.40
2023-03-06T19:39:30.833Z,53.03
2023-03-06T19:41:37.666Z,53.05
2023-03-06T19:43:43.002Z,53.27
2023-03-06T19:45:52.942Z,53.37
2023-03-06T19:48:00.486Z,53.59
2023-03-06T19:50:06.200Z,53.80
2023-03-06T19:52:13.978Z,53.88
2023-03-06T19:54:27.439Z,53.88
2023-03-06T19:56:34.289Z,53.81
2023-03-06T19:58:41.662Z,53.69
2023-03-06T20:00:47.232Z,53.75
2023-03-06T20:02:54.190Z,53.84
2023-03-06T20:05:00.956Z,53.61
2023-03-06T20:07:07.574Z,53.48
2023-03-06T20:09:15.414Z,53.46
2023-03-06T20:11:23.556Z,53.38
2023-03-06T20:13:31.546Z,53.22
2023-03-06T20:15:38.788Z,53.19
2023-03-06T20:17:45.443Z,53.14
2023-03-06T20:19:52.157Z,53.09
2023-03-06T20:22:00.306Z,53.17
2023-03-06T20:24:07.921Z,53.28
2023-03-06T20:26:15.246Z,53.21
2023-03-06T20:28:20.811Z,53.31
2023-03-06T20:30:37.315Z,53.21
2023-03-06T20:32:45.885Z,53.43
2023-03-06T20:34:52.953Z,53.13
2023-03-06T20:36:59.803Z,52.96
2023-03-06T20:39:08.602Z,53.11
2023-03-06T20:41:18.785Z,53.08
2023-03-06T20:43:25.610Z,53.24
2023-03-06T20:45:31.894Z,53.23
2023-03-06T20:47:38.531Z,53.21
2023-03-06T20:49:46.233Z,52.98
2023-03-06T20:51:52.548Z,52.99
2023-03-06T20:53:59.320Z,52.65
2023-03-06T20:56:06.953Z,52.94
2023-03-06T20:58:14.670Z,53.14
2023-03-06T21:00:22.262Z,53.16
2023-03-06T21:02:28.507Z,52.69
2023-03-06T21:04:34.154Z,53.25
2023-03-06T21:06:40.090Z,53.03
2023-03-06T21:08:59.291Z,52.99
2023-03-06T21:11:06.053Z,53.06
2023-03-06T21:13:11.726Z,53.06
2023-03-06T21:15:20.017Z,53.16
2023-03-06T21:17:25.639Z,53.03
2023-03-06T21:19:31.542Z,53.33
2023-03-06T21:21:37.183Z,53.20
2023-03-06T21:23:42.472Z,53.09
2023-03-06T21:25:52.235Z,52.95
2023-03-06T21:27:57.803Z,53.26
2023-03-06T21:30:03.476Z,53.41
2023-03-06T21:32:08.412Z,53.31
2023-03-06T21:34:13.493Z,53.44
2023-03-06T21:36:19.773Z,53.38
2023-03-06T21:38:25.462Z,53.47
2023-03-06T21:40:30.989Z,53.37
2023-03-06T21:42:36.569Z,53.22
2023-03-06T21:44:41.272Z,53.25
2023-03-06T21:46:45.995Z,53.28
2023-03-06T21:48:50.784Z,53.46
2023-03-06T21:51:06.129Z,53.65
2023-03-06T21:53:10.890Z,53.39
2023-03-06T21:55:15.688Z,53.45
2023-03-06T21:57:20.400Z,53.61
2023-03-06T21:59:25.259Z,53.54
2023-03-06T22:01:30.241Z,53.77
2023-03-06T22:03:36.082Z,53.66
2023-03-06T22:05:40.692Z,53.61
2023-03-06T22:07:45.409Z,53.62
2023-03-06T22:09:51.583Z,53.98
2023-03-06T22:11:56.261Z,53.92
2023-03-06T22:14:01.036Z,54.03
2023-03-06T22:16:07.361Z,53.94
2023-03-06T22:18:12.089Z,53.78
2023-03-06T22:20:17.136Z,54.10
2023-03-06T22:22:21.882Z,54.10
2023-03-06T22:24:26.622Z,54.32
2023-03-06T22:26:31.556Z,53.93
2023-03-06T22:28:36.199Z,54.20
2023-03-06T22:30:40.806Z,53.89
2023-03-06T22:32:45.514Z,54.10
2023-03-06T22:34:51.457Z,54.03
2023-03-06T22:36:56.143Z,54.10
2023-03-06T22:39:02.897Z,53.83
2023-03-06T22:41:08.371Z,53.74
2023-03-06T22:43:12.984Z,53.69
2023-03-06T22:45:17.747Z,54.36
2023-03-06T22:47:22.362Z,53.82
2023-03-06T22:49:26.963Z,54.04
2023-03-06T22:51:31.595Z,54.29
2023-03-06T22:53:36.786Z,54.19
2023-03-06T22:55:41.506Z,54.11
2023-03-06T22:57:46.615Z,54.16
2023-03-06T22:59:51.827Z,54.04
2023-03-06T23:01:58.702Z,53.92
2023-03-06T23:04:04.451Z,54.14
2023-03-06T23:06:12.199Z,53.90
2023-03-06T23:08:17.319Z,54.24
2023-03-06T23:10:22.013Z,54.28
2023-03-06T23:12:44.983Z,53.91
2023-03-06T23:15:09.513Z,54.32
2023-03-06T23:17:33.016Z,54.52
2023-03-06T23:19:56.487Z,54.45
2023-03-06T23:22:19.590Z,54.44
2023-03-06T23:24:42.825Z,54.57
2023-03-06T23:26:47.502Z,54.51
2023-03-06T23:28:52.719Z,54.90
2023-03-06T23:30:57.512Z,54.65
2023-03-06T23:33:02.210Z,54.50
2023-03-06T23:35:07.890Z,54.53
2023-03-06T23:37:15.313Z,54.74
2023-03-06T23:39:20.364Z,54.76
2023-03-06T23:41:25.421Z,54.76
2023-03-06T23:43:30.680Z,54.84
2023-03-06T23:45:35.415Z,54.60
2023-03-06T23:47:40.042Z,54.90
2023-03-06T23:49:44.829Z,55.14
2023-03-06T23:51:49.471Z,54.91
2023-03-06T23:53:59.195Z,55.18
2023-03-06T23:56:09.472Z,55.30
2023-03-06T23:58:18.134Z,55.48
